Molengracht — PCJG — position and weather

sailwx.info

Track history (hours):
 
Tides and Currents Weather Stations Pressure Air Temp Water Temp Dewpoint Dewpoint Depression Visibility Wind Speed Wind Dir Waves Ship Positions

Molengracht

Last reported at 2016-Apr-23 21:33 UTC. Time now 2016-May-02 21:17 UTC.
Position N 27°50' W 015°15'.
Warning: this ship's position is 8 days out of date.

Length 143 m; draft 7.2 m.

Type: Cargo ship. MMSI: 246770000.

Date/timePositionNaut miles runAvg speedWind from/ knotsBaromVisibWave heightAir tempDewpointWater temp
2016-Apr-23 21:33N 27°50' W 015°15'1414.3
2016-Apr-23 20:33N 28°03' W 015°20'7 6.8
2016-Apr-23 19:32N 28°09' W 015°25'0 0.0
2016-Apr-23 18:29N 28°09' W 015°25'0 0.0
2016-Apr-23 17:32N 28°09' W 015°25'0 0.0
2016-Apr-23 16:32N 28°09' W 015°25'0 0.0
2016-Apr-23 15:32N 28°09' W 015°25'0 0.0
2016-Apr-23 14:33N 28°09' W 015°25'4 3.5
2016-Apr-23 13:33N 28°08' W 015°21'1515.3
2016-Apr-23 12:33N 28°19' W 015°09'1615.8
2016-Apr-23 11:33N 28°30' W 014°56'1615.5
2016-Apr-23 10:33N 28°42' W 014°44'63615.0
2016-Apr-21 16:07N 35°58' W 005°36'610.5
2016-Apr-21 15:33N 35°60' W 005°29'11 1.0
2016-Apr-21 05:14N 36°09' W 005°22'2 3.4
2016-Apr-21 04:34N 36°07' W 005°22'5 5.2
2016-Apr-21 03:33N 36°01' W 005°22'285 9.8
2016-Apr-19 22:30N 38°49' W 010°12'  
2016-Apr-17 14:31N 49°55' W 003°05'9916.6
2016-Apr-17 08:33N 50°24' W 000°37'1313.1
2016-Apr-17 07:33N 50°27' W 000°17'1312.2
2016-Apr-17 06:30N 50°30' E 000°02'1313.7
2016-Apr-17 05:33N 50°34' E 000°22'3214.6
2016-Apr-17 03:22N 50°52' E 001°04'1316.3
2016-Apr-17 02:34N 51°01' E 001°20'1616.3
2016-Apr-17 01:34N 51°11' E 001°40'1515.2
2016-Apr-17 00:33N 51°24' E 001°53'1514.6
2016-Apr-16 23:33N 51°37' E 002°03'5814.4
2016-Apr-16 19:31N 52°35' E 002°15'2115.6
2016-Apr-16 18:11N 52°54' E 002°05'1015.9
2016-Apr-16 17:34N 52°59' E 001°50'1616.0
2016-Apr-16 16:34N 53°08' E 001°28'1716.9
2016-Apr-16 15:33N 53°20' E 001°08'2814.0
2016-Apr-16 13:34N 53°32' E 000°26'1312.8
2016-Apr-16 12:34N 53°34' E 000°04'10 9.9
2016-Apr-16 11:33N 53°38' W 000°11'0 0.2
2016-Apr-16 10:33N 53°38' W 000°11'0 0.0
2016-Apr-16 09:33N 53°38' W 000°11'0 0.0
2016-Apr-16 08:33N 53°38' W 000°11'0 0.0
2016-Apr-16 07:33N 53°38' W 000°11'0 0.0
2016-Apr-16 06:30N 53°38' W 000°11'0 0.0
2016-Apr-16 05:30N 53°38' W 000°11'0 0.0
2016-Apr-16 04:33N 53°38' W 000°11'0 0.0
2016-Apr-16 03:33N 53°38' W 000°11'0 0.0
2016-Apr-16 02:33N 53°38' W 000°11'0 0.0
2016-Apr-16 01:33N 53°38' W 000°11'0 0.0
2016-Apr-16 00:33N 53°38' W 000°11'0 0.0
2016-Apr-15 23:33N 53°38' W 000°11'0 0.0
2016-Apr-15 22:33N 53°38' W 000°11'0 0.0
2016-Apr-15 21:33N 53°38' W 000°11'0 0.0
2016-Apr-15 20:33N 53°38' W 000°11'0 0.0
2016-Apr-15 19:33N 53°38' W 000°11'0 0.0
2016-Apr-15 18:33N 53°38' W 000°11'0 0.0
2016-Apr-15 17:33N 53°38' W 000°11'0 0.0
2016-Apr-15 16:33N 53°38' W 000°11'0 0.0
2016-Apr-15 15:33N 53°38' W 000°11'0 0.0
2016-Apr-15 14:33N 53°38' W 000°11'0 0.0
2016-Apr-15 13:33N 53°38' W 000°11'0 0.0
2016-Apr-15 12:33N 53°38' W 000°11'0 0.0
2016-Apr-15 11:33N 53°38' W 000°11'0 0.0
2016-Apr-15 10:30N 53°38' W 000°11'0 0.0
2016-Apr-15 09:24N 53°38' W 000°11'0 0.0
2016-Apr-15 08:30N 53°38' W 000°11'0 0.0
2016-Apr-15 07:33N 53°38' W 000°11'0 0.0
2016-Apr-15 06:27N 53°38' W 000°11'0 0.0
2016-Apr-15 05:30N 53°38' W 000°11'0 0.0
2016-Apr-15 04:33N 53°38' W 000°11'0 0.0
2016-Apr-15 03:33N 53°38' W 000°11'0 0.0
2016-Apr-15 02:33N 53°38' W 000°11'0 0.0
2016-Apr-15 01:33N 53°38' W 000°11'0 0.0
2016-Apr-15 00:33N 53°38' W 000°11'0 0.0
2016-Apr-14 23:33N 53°38' W 000°11'0 0.0
2016-Apr-14 22:33N 53°38' W 000°11'0 0.0
2016-Apr-14 21:33N 53°38' W 000°11'0 0.0
2016-Apr-14 20:33N 53°38' W 000°11'0 0.0
2016-Apr-14 19:33N 53°38' W 000°11'0 0.0
2016-Apr-14 18:33N 53°38' W 000°11'0 0.0
2016-Apr-14 17:33N 53°38' W 000°11'0 0.0
2016-Apr-14 16:33N 53°38' W 000°11'0 0.0
2016-Apr-14 15:30N 53°38' W 000°11'0 0.0
2016-Apr-14 14:33N 53°38' W 000°11'0 0.0
2016-Apr-14 13:33N 53°38' W 000°11'0 0.0
2016-Apr-14 12:33N 53°38' W 000°11'0 0.0
2016-Apr-14 11:33N 53°38' W 000°11'0 0.0
2016-Apr-14 10:33N 53°38' W 000°11'0 0.0
2016-Apr-14 09:27N 53°38' W 000°11'0 0.0
2016-Apr-14 08:33N 53°38' W 000°11'0 0.0
2016-Apr-14 07:30N 53°38' W 000°11'0 0.0
2016-Apr-14 06:33N 53°38' W 000°11'0 0.0
2016-Apr-14 05:33N 53°38' W 000°11'0 0.0
2016-Apr-14 04:33N 53°38' W 000°11'0 0.0
2016-Apr-14 03:30N 53°38' W 000°11'0 0.0
2016-Apr-14 02:30N 53°38' W 000°11'0 0.0
2016-Apr-14 01:27N 53°38' W 000°11'0 0.0
2016-Apr-14 00:33N 53°38' W 000°11'0 0.0
2016-Apr-13 23:33N 53°38' W 000°11'0 0.2
2016-Apr-13 22:33N 53°38' W 000°11'2 2.4
2016-Apr-13 21:33N 53°37' W 000°07'  
Track history (hours):
 
Tides and Currents Weather Stations Pressure Air Temp Water Temp Dewpoint Dewpoint Depression Visibility Wind Speed Wind Dir Waves Ship Positions

Molengracht

Last reported at 2016-Apr-23 21:33 UTC. Time now 2016-May-02 21:17 UTC.
Position N 27°50' W 015°15'.
Warning: this ship's position is 8 days out of date.

Length 143 m; draft 7.2 m.

Type: Cargo ship. MMSI: 246770000.

Date/timePositionNaut miles runAvg speedWind from/ knotsBaromVisibWave heightAir tempDewpointWater temp
2016-Apr-23 21:33N 27°50' W 015°15'1414.3
2016-Apr-23 20:33N 28°03' W 015°20'7 6.8
2016-Apr-23 19:32N 28°09' W 015°25'0 0.0
2016-Apr-23 18:29N 28°09' W 015°25'0 0.0
2016-Apr-23 17:32N 28°09' W 015°25'0 0.0
2016-Apr-23 16:32N 28°09' W 015°25'0 0.0
2016-Apr-23 15:32N 28°09' W 015°25'0 0.0
2016-Apr-23 14:33N 28°09' W 015°25'4 3.5
2016-Apr-23 13:33N 28°08' W 015°21'1515.3
2016-Apr-23 12:33N 28°19' W 015°09'1615.8
2016-Apr-23 11:33N 28°30' W 014°56'1615.5
2016-Apr-23 10:33N 28°42' W 014°44'63615.0
2016-Apr-21 16:07N 35°58' W 005°36'610.5
2016-Apr-21 15:33N 35°60' W 005°29'11 1.0
2016-Apr-21 05:14N 36°09' W 005°22'2 3.4
2016-Apr-21 04:34N 36°07' W 005°22'5 5.2
2016-Apr-21 03:33N 36°01' W 005°22'285 9.8
2016-Apr-19 22:30N 38°49' W 010°12'  
2016-Apr-17 14:31N 49°55' W 003°05'9916.6
2016-Apr-17 08:33N 50°24' W 000°37'1313.1
2016-Apr-17 07:33N 50°27' W 000°17'1312.2
2016-Apr-17 06:30N 50°30' E 000°02'1313.7
2016-Apr-17 05:33N 50°34' E 000°22'3214.6
2016-Apr-17 03:22N 50°52' E 001°04'1316.3
2016-Apr-17 02:34N 51°01' E 001°20'1616.3
2016-Apr-17 01:34N 51°11' E 001°40'1515.2
2016-Apr-17 00:33N 51°24' E 001°53'1514.6
2016-Apr-16 23:33N 51°37' E 002°03'5814.4
2016-Apr-16 19:31N 52°35' E 002°15'2115.6
2016-Apr-16 18:11N 52°54' E 002°05'1015.9
2016-Apr-16 17:34N 52°59' E 001°50'1616.0
2016-Apr-16 16:34N 53°08' E 001°28'1716.9
2016-Apr-16 15:33N 53°20' E 001°08'2814.0
2016-Apr-16 13:34N 53°32' E 000°26'1312.8
2016-Apr-16 12:34N 53°34' E 000°04'10 9.9
2016-Apr-16 11:33N 53°38' W 000°11'0 0.2
2016-Apr-16 10:33N 53°38' W 000°11'0 0.0
2016-Apr-16 09:33N 53°38' W 000°11'0 0.0
2016-Apr-16 08:33N 53°38' W 000°11'0 0.0
2016-Apr-16 07:33N 53°38' W 000°11'0 0.0
2016-Apr-16 06:30N 53°38' W 000°11'0 0.0
2016-Apr-16 05:30N 53°38' W 000°11'0 0.0
2016-Apr-16 04:33N 53°38' W 000°11'0 0.0
2016-Apr-16 03:33N 53°38' W 000°11'0 0.0
2016-Apr-16 02:33N 53°38' W 000°11'0 0.0
2016-Apr-16 01:33N 53°38' W 000°11'0 0.0
2016-Apr-16 00:33N 53°38' W 000°11'0 0.0
2016-Apr-15 23:33N 53°38' W 000°11'0 0.0
2016-Apr-15 22:33N 53°38' W 000°11'0 0.0
2016-Apr-15 21:33N 53°38' W 000°11'0 0.0
2016-Apr-15 20:33N 53°38' W 000°11'0 0.0
2016-Apr-15 19:33N 53°38' W 000°11'0 0.0
2016-Apr-15 18:33N 53°38' W 000°11'0 0.0
2016-Apr-15 17:33N 53°38' W 000°11'0 0.0
2016-Apr-15 16:33N 53°38' W 000°11'0 0.0
2016-Apr-15 15:33N 53°38' W 000°11'0 0.0
2016-Apr-15 14:33N 53°38' W 000°11'0 0.0
2016-Apr-15 13:33N 53°38' W 000°11'0 0.0
2016-Apr-15 12:33N 53°38' W 000°11'0 0.0
2016-Apr-15 11:33N 53°38' W 000°11'0 0.0
2016-Apr-15 10:30N 53°38' W 000°11'0 0.0
2016-Apr-15 09:24N 53°38' W 000°11'0 0.0
2016-Apr-15 08:30N 53°38' W 000°11'0 0.0
2016-Apr-15 07:33N 53°38' W 000°11'0 0.0
2016-Apr-15 06:27N 53°38' W 000°11'0 0.0
2016-Apr-15 05:30N 53°38' W 000°11'0 0.0
2016-Apr-15 04:33N 53°38' W 000°11'0 0.0
2016-Apr-15 03:33N 53°38' W 000°11'0 0.0
2016-Apr-15 02:33N 53°38' W 000°11'0 0.0
2016-Apr-15 01:33N 53°38' W 000°11'0 0.0
2016-Apr-15 00:33N 53°38' W 000°11'0 0.0
2016-Apr-14 23:33N 53°38' W 000°11'0 0.0
2016-Apr-14 22:33N 53°38' W 000°11'0 0.0
2016-Apr-14 21:33N 53°38' W 000°11'0 0.0
2016-Apr-14 20:33N 53°38' W 000°11'0 0.0
2016-Apr-14 19:33N 53°38' W 000°11'0 0.0
2016-Apr-14 18:33N 53°38' W 000°11'0 0.0
2016-Apr-14 17:33N 53°38' W 000°11'0 0.0
2016-Apr-14 16:33N 53°38' W 000°11'0 0.0
2016-Apr-14 15:30N 53°38' W 000°11'0 0.0
2016-Apr-14 14:33N 53°38' W 000°11'0 0.0
2016-Apr-14 13:33N 53°38' W 000°11'0 0.0
2016-Apr-14 12:33N 53°38' W 000°11'0 0.0
2016-Apr-14 11:33N 53°38' W 000°11'0 0.0
2016-Apr-14 10:33N 53°38' W 000°11'0 0.0
2016-Apr-14 09:27N 53°38' W 000°11'0 0.0
2016-Apr-14 08:33N 53°38' W 000°11'0 0.0
2016-Apr-14 07:30N 53°38' W 000°11'0 0.0
2016-Apr-14 06:33N 53°38' W 000°11'0 0.0
2016-Apr-14 05:33N 53°38' W 000°11'0 0.0
2016-Apr-14 04:33N 53°38' W 000°11'0 0.0
2016-Apr-14 03:30N 53°38' W 000°11'0 0.0
2016-Apr-14 02:30N 53°38' W 000°11'0 0.0
2016-Apr-14 01:27N 53°38' W 000°11'0 0.0
2016-Apr-14 00:33N 53°38' W 000°11'0 0.0
2016-Apr-13 23:33N 53°38' W 000°11'0 0.2
2016-Apr-13 22:33N 53°38' W 000°11'2 2.4
2016-Apr-13 21:33N 53°37' W 000°07'  

Dump ship's entire track history